createdAt,value
2018-05-15T00:00:46.039Z,14.3
2018-05-15T00:01:46.000Z,14.31
2018-05-15T00:02:45.948Z,14.28
2018-05-15T00:03:46.024Z,14.23
2018-05-15T00:04:46.008Z,14.27
2018-05-15T00:05:46.343Z,14.27
2018-05-15T00:06:45.943Z,14.26
2018-05-15T00:07:45.991Z,14.24
2018-05-15T00:08:46.022Z,14.28
2018-05-15T00:09:46.035Z,14.3
2018-05-15T00:10:45.998Z,14.23
2018-05-15T00:11:46.022Z,14.24
2018-05-15T00:12:46.014Z,14.4
2018-05-15T00:13:45.992Z,14.44
2018-05-15T00:14:45.970Z,14.42
2018-05-15T00:15:45.982Z,14.35
2018-05-15T00:16:45.979Z,14.32
2018-05-15T00:17:45.990Z,14.3
2018-05-15T00:18:46.000Z,14.29
2018-05-15T00:19:45.967Z,14.28
2018-05-15T00:20:45.948Z,14.28
2018-05-15T00:21:46.191Z,14.25
2018-05-15T00:22:46.043Z,14.26
2018-05-15T00:23:46.031Z,14.31
2018-05-15T00:24:46.066Z,14.33
2018-05-15T00:25:45.978Z,14.31
2018-05-15T00:26:46.014Z,14.38
2018-05-15T00:27:46.017Z,14.44
2018-05-15T00:28:46.009Z,14.43
2018-05-15T00:29:45.988Z,14.38
2018-05-15T00:30:45.989Z,14.32
2018-05-15T00:31:45.984Z,14.44
2018-05-15T00:32:46.066Z,14.39
2018-05-15T00:33:46.028Z,14.45
2018-05-15T00:34:46.067Z,14.5
2018-05-15T00:35:46.044Z,14.52
2018-05-15T00:36:45.997Z,14.52
2018-05-15T00:37:45.970Z,14.48
2018-05-15T00:38:46.132Z,14.37
2018-05-15T00:39:46.051Z,14.41
2018-05-15T00:40:46.018Z,14.47
2018-05-15T00:41:46.053Z,14.43
2018-05-15T00:42:46.009Z,14.5
2018-05-15T00:43:46.005Z,14.5
2018-05-15T00:44:46.116Z,14.51
2018-05-15T00:45:46.028Z,14.5
2018-05-15T00:46:46.393Z,14.53
2018-05-15T00:47:46.060Z,14.49
2018-05-15T00:48:46.011Z,14.43
2018-05-15T00:49:46.035Z,14.44
2018-05-15T00:50:46.003Z,14.41
2018-05-15T00:51:46.023Z,14.48
2018-05-15T00:52:46.025Z,14.43
2018-05-15T00:53:46.023Z,14.54
2018-05-15T00:54:46.037Z,14.45
2018-05-15T00:55:46.008Z,14.49
2018-05-15T00:56:46.219Z,14.42
2018-05-15T00:57:46.079Z,14.37
2018-05-15T00:58:46.069Z,14.46
2018-05-15T00:59:46.066Z,14.49
2018-05-15T01:00:46.028Z,14.44
2018-05-15T01:01:46.151Z,14.47
2018-05-15T01:02:46.020Z,14.42
2018-05-15T01:03:46.092Z,14.46
2018-05-15T01:04:46.021Z,14.42
2018-05-15T01:05:46.011Z,14.44
2018-05-15T01:06:46.072Z,14.4
2018-05-15T01:07:46.051Z,14.36
2018-05-15T01:08:45.984Z,14.41
2018-05-15T01:09:46.743Z,14.38
2018-05-15T01:10:46.007Z,14.39
2018-05-15T01:11:45.981Z,14.39
2018-05-15T01:12:45.989Z,14.36
2018-05-15T01:13:46.039Z,14.41
2018-05-15T01:14:45.999Z,14.43
2018-05-15T01:15:46.037Z,14.45
2018-05-15T01:16:45.975Z,14.39
2018-05-15T01:17:46.121Z,14.38
2018-05-15T01:18:45.957Z,14.35
2018-05-15T01:19:46.008Z,14.34
2018-05-15T01:20:46.021Z,14.42
2018-05-15T01:21:45.963Z,14.42
2018-05-15T01:22:45.993Z,14.41
2018-05-15T01:23:45.961Z,14.42
2018-05-15T01:24:45.995Z,14.38
2018-05-15T01:25:46.074Z,14.34
2018-05-15T01:26:45.995Z,14.33
2018-05-15T01:27:46.019Z,14.38
2018-05-15T01:28:46.127Z,14.42
2018-05-15T01:29:46.075Z,14.37
2018-05-15T01:30:46.198Z,14.36
2018-05-15T01:31:46.010Z,14.4
2018-05-15T01:32:45.985Z,14.42
2018-05-15T01:33:46.075Z,14.45
2018-05-15T01:34:46.173Z,14.44
2018-05-15T01:35:46.035Z,14.49
2018-05-15T01:36:45.990Z,14.45
2018-05-15T01:37:46.057Z,14.44
2018-05-15T01:38:46.044Z,14.4
2018-05-15T01:39:45.997Z,14.47
2018-05-15T01:40:46.011Z,14.4
2018-05-15T01:41:46.109Z,14.46
2018-05-15T01:42:45.988Z,14.46
2018-05-15T01:43:46.014Z,14.44
2018-05-15T01:44:46.075Z,14.39
2018-05-15T01:45:46.036Z,14.38
2018-05-15T01:46:46.096Z,14.36
2018-05-15T01:47:46.007Z,14.38
2018-05-15T01:48:46.056Z,14.37
2018-05-15T01:49:45.985Z,14.42
2018-05-15T01:50:46.021Z,14.47
2018-05-15T01:51:45.999Z,14.45
2018-05-15T01:52:46.173Z,14.45
2018-05-15T01:53:46.079Z,14.48
2018-05-15T01:54:46.104Z,14.47
2018-05-15T01:55:46.044Z,14.44
2018-05-15T01:56:45.993Z,14.41
2018-05-15T01:57:46.010Z,14.52
2018-05-15T01:58:46.015Z,14.54
2018-05-15T01:59:46.036Z,14.48
2018-05-15T02:00:45.998Z,14.51
2018-05-15T02:01:46.032Z,14.5
2018-05-15T02:02:46.171Z,14.52
2018-05-15T02:03:46.153Z,14.46
2018-05-15T02:04:46.044Z,14.43
2018-05-15T02:05:46.021Z,14.45
2018-05-15T02:06:46.040Z,14.49
2018-05-15T02:07:46.037Z,14.5
2018-05-15T02:08:46.089Z,14.47
2018-05-15T02:09:46.048Z,14.53
2018-05-15T02:10:46.021Z,14.47
2018-05-15T02:11:46.062Z,14.44
2018-05-15T02:12:46.042Z,14.44
2018-05-15T02:13:46.057Z,14.48
2018-05-15T02:14:46.021Z,14.38
2018-05-15T02:15:46.055Z,14.53
2018-05-15T02:16:46.078Z,14.61
2018-05-15T02:17:46.029Z,14.58
2018-05-15T02:18:46.048Z,14.53
2018-05-15T02:19:46.052Z,14.48
2018-05-15T02:20:46.208Z,14.51
2018-05-15T02:21:46.024Z,14.48
2018-05-15T02:22:46.001Z,14.47
2018-05-15T02:23:46.062Z,14.44
2018-05-15T02:24:46.038Z,14.39
2018-05-15T02:25:46.038Z,14.48
2018-05-15T02:26:46.043Z,14.45
2018-05-15T02:27:46.023Z,14.4
2018-05-15T02:28:46.010Z,14.4
2018-05-15T02:29:46.085Z,14.38
2018-05-15T02:30:46.069Z,14.39
2018-05-15T02:31:46.062Z,14.37
2018-05-15T02:32:46.058Z,14.34
2018-05-15T02:33:46.072Z,14.44
2018-05-15T02:34:46.052Z,14.53
2018-05-15T02:35:46.071Z,14.54
2018-05-15T02:36:46.159Z,14.46
2018-05-15T02:37:46.008Z,14.53
2018-05-15T02:38:46.041Z,14.46
2018-05-15T02:39:46.044Z,14.46
2018-05-15T02:40:46.100Z,14.44
2018-05-15T02:41:46.220Z,14.46
2018-05-15T02:42:46.177Z,14.4
2018-05-15T02:43:46.096Z,14.39
2018-05-15T02:44:46.102Z,14.46
2018-05-15T02:45:46.045Z,14.46
2018-05-15T02:46:46.116Z,14.43
2018-05-15T02:47:46.064Z,14.43
2018-05-15T02:48:46.107Z,14.37
2018-05-15T02:49:46.069Z,14.31
2018-05-15T02:50:46.104Z,14.35
2018-05-15T02:51:46.046Z,14.24
2018-05-15T02:52:46.035Z,14.19
2018-05-15T02:53:46.134Z,14.26
2018-05-15T02:54:46.175Z,14.22
2018-05-15T02:55:46.126Z,14.23
2018-05-15T02:56:46.159Z,14.23
2018-05-15T02:57:46.090Z,14.25
2018-05-15T02:58:46.880Z,14.26
2018-05-15T02:59:46.067Z,14.24
2018-05-15T03:00:46.070Z,14.17
2018-05-15T03:01:46.110Z,14.28
2018-05-15T03:02:46.055Z,14.27
2018-05-15T03:03:46.062Z,14.23
2018-05-15T03:04:46.097Z,14.15
2018-05-15T03:05:46.047Z,14.2
2018-05-15T03:06:46.068Z,14.19
2018-05-15T03:07:46.090Z,14.09
2018-05-15T03:08:46.061Z,14.12
2018-05-15T03:09:46.186Z,14.11
2018-05-15T03:10:46.060Z,14.13
2018-05-15T03:11:47.015Z,14.08
2018-05-15T03:12:46.050Z,14.05
2018-05-15T03:13:46.836Z,14.08
2018-05-15T03:14:46.080Z,14.11
2018-05-15T03:15:46.131Z,14.08
2018-05-15T03:16:46.056Z,14.07
2018-05-15T03:17:46.026Z,14.09
2018-05-15T03:18:46.068Z,14.11
2018-05-15T03:19:46.043Z,14.09
2018-05-15T03:20:46.131Z,14.05
2018-05-15T03:21:46.096Z,14.06
2018-05-15T03:22:46.088Z,14.04
2018-05-15T03:23:46.088Z,14.02
2018-05-15T03:24:46.088Z,14.02
2018-05-15T03:25:46.113Z,13.96
2018-05-15T03:26:46.025Z,13.95
2018-05-15T03:27:46.051Z,13.89
2018-05-15T03:28:46.096Z,13.84
2018-05-15T03:29:46.080Z,13.86
2018-05-15T03:30:46.088Z,13.93
2018-05-15T03:31:46.079Z,13.93
2018-05-15T03:32:46.068Z,13.94
2018-05-15T03:33:46.055Z,13.87
2018-05-15T03:34:46.082Z,13.85
2018-05-15T03:35:46.043Z,13.8
2018-05-15T03:36:46.081Z,13.8
2018-05-15T03:37:46.083Z,13.75
2018-05-15T03:38:46.072Z,13.81
2018-05-15T03:39:46.070Z,13.82
2018-05-15T03:40:46.076Z,13.78
2018-05-15T03:41:47.272Z,13.81
2018-05-15T03:42:46.064Z,13.78
2018-05-15T03:43:46.079Z,13.78
2018-05-15T03:44:46.105Z,13.81
2018-05-15T03:45:46.191Z,13.85
2018-05-15T03:46:46.149Z,13.82
2018-05-15T03:47:46.227Z,13.76
2018-05-15T03:48:46.093Z,13.79
2018-05-15T03:49:46.129Z,13.81
2018-05-15T03:50:46.072Z,13.77
2018-05-15T03:51:46.088Z,13.76
2018-05-15T03:52:46.133Z,13.74
2018-05-15T03:53:46.117Z,13.76
2018-05-15T03:54:46.097Z,13.8
2018-05-15T03:55:46.126Z,13.78
2018-05-15T03:56:46.085Z,13.79
2018-05-15T03:57:46.037Z,13.8
2018-05-15T03:58:46.100Z,13.8
2018-05-15T03:59:46.111Z,13.7
2018-05-15T04:00:46.113Z,13.68
2018-05-15T04:01:46.131Z,13.72
2018-05-15T04:02:46.231Z,13.77
2018-05-15T04:03:46.102Z,13.72
2018-05-15T04:04:46.071Z,13.82
2018-05-15T04:05:46.081Z,13.67
2018-05-15T04:06:46.157Z,13.68
2018-05-15T04:07:46.098Z,13.62
2018-05-15T04:08:47.097Z,13.69
2018-05-15T04:09:46.104Z,13.65
2018-05-15T04:10:46.407Z,13.65
2018-05-15T04:11:46.127Z,13.78
2018-05-15T04:12:46.124Z,13.72
2018-05-15T04:13:46.110Z,13.73
2018-05-15T04:14:46.187Z,13.64
2018-05-15T04:15:46.176Z,13.63
2018-05-15T04:16:46.171Z,13.64
2018-05-15T04:17:46.126Z,13.75
2018-05-15T04:18:46.079Z,13.7
2018-05-15T04:19:46.165Z,13.64
2018-05-15T04:20:46.099Z,13.63
2018-05-15T04:21:46.241Z,13.6
2018-05-15T04:22:46.086Z,13.61
2018-05-15T04:23:46.299Z,13.57
2018-05-15T04:24:46.095Z,13.57
2018-05-15T04:25:46.115Z,13.62
2018-05-15T04:26:46.112Z,13.63
2018-05-15T04:27:46.108Z,13.63
2018-05-15T04:28:46.112Z,13.62
2018-05-15T04:29:46.091Z,13.68
2018-05-15T04:30:46.113Z,13.76
2018-05-15T04:31:46.128Z,13.77
2018-05-15T04:32:46.218Z,13.73
2018-05-15T04:33:46.145Z,13.68
2018-05-15T04:34:46.101Z,13.69
2018-05-15T04:35:46.126Z,13.68
2018-05-15T04:36:46.069Z,13.69
2018-05-15T04:37:46.103Z,13.77
2018-05-15T04:38:46.483Z,13.68
2018-05-15T04:39:46.071Z,13.6
2018-05-15T04:40:46.140Z,13.61
2018-05-15T04:41:46.104Z,13.58
2018-05-15T04:42:46.153Z,13.64
2018-05-15T04:43:47.552Z,13.7
2018-05-15T04:44:46.120Z,13.71
2018-05-15T04:45:46.114Z,13.7
2018-05-15T04:46:46.078Z,13.64
2018-05-15T04:47:46.135Z,13.68
2018-05-15T04:48:46.102Z,13.69
2018-05-15T04:49:46.108Z,13.7
2018-05-15T04:50:46.119Z,13.73
2018-05-15T04:51:46.113Z,13.73
2018-05-15T04:52:46.146Z,13.69
2018-05-15T04:53:46.593Z,13.69
2018-05-15T04:54:46.103Z,13.69
2018-05-15T04:55:46.590Z,13.72
2018-05-15T04:56:46.088Z,13.65
2018-05-15T04:57:46.165Z,13.64
2018-05-15T04:58:46.102Z,13.67
2018-05-15T04:59:46.119Z,13.69
2018-05-15T05:00:46.097Z,13.65
2018-05-15T05:01:46.068Z,13.69
2018-05-15T05:02:48.282Z,13.69
2018-05-15T05:03:46.088Z,13.65
2018-05-15T05:04:46.127Z,13.65
2018-05-15T05:05:46.102Z,13.61
2018-05-15T05:06:46.107Z,13.67
2018-05-15T05:07:46.193Z,13.78
2018-05-15T05:08:46.140Z,13.71
2018-05-15T05:09:46.159Z,13.72
2018-05-15T05:10:46.464Z,13.78
2018-05-15T05:11:46.799Z,13.75
2018-05-15T05:12:46.162Z,13.73
2018-05-15T05:13:46.125Z,13.71
2018-05-15T05:14:46.494Z,13.71
2018-05-15T05:15:46.096Z,13.71
2018-05-15T05:16:46.149Z,13.68
2018-05-15T05:17:46.177Z,13.73
2018-05-15T05:18:46.087Z,13.72
2018-05-15T05:19:46.154Z,13.69
2018-05-15T05:20:46.089Z,13.67
2018-05-15T05:21:46.097Z,13.68
2018-05-15T05:22:46.448Z,13.62
2018-05-15T05:23:46.553Z,13.68
2018-05-15T05:24:46.140Z,13.65
2018-05-15T05:25:46.126Z,13.64
2018-05-15T05:26:46.183Z,13.46
2018-05-15T05:27:46.185Z,13.49
2018-05-15T05:28:46.139Z,13.62
2018-05-15T05:29:46.173Z,13.56
2018-05-15T05:30:46.198Z,13.61
2018-05-15T05:31:46.264Z,13.65
2018-05-15T05:32:46.161Z,13.65
2018-05-15T05:33:46.158Z,13.64
2018-05-15T05:34:46.179Z,13.71
2018-05-15T05:35:46.116Z,13.64
2018-05-15T05:36:46.139Z,13.63
2018-05-15T05:37:46.110Z,13.6
2018-05-15T05:38:46.145Z,13.56
2018-05-15T05:39:46.109Z,13.58
2018-05-15T05:40:46.162Z,13.52
2018-05-15T05:41:46.109Z,13.52
2018-05-15T05:42:46.110Z,13.55
2018-05-15T05:43:46.125Z,13.57
2018-05-15T05:44:46.130Z,13.52
2018-05-15T05:45:46.135Z,13.52
2018-05-15T05:46:46.129Z,13.55
2018-05-15T05:47:46.136Z,13.48
2018-05-15T05:48:46.144Z,13.59
2018-05-15T05:49:46.124Z,13.55
2018-05-15T05:50:46.122Z,13.43
2018-05-15T05:51:46.147Z,13.42
2018-05-15T05:52:46.129Z,13.39
2018-05-15T05:53:46.145Z,13.43
2018-05-15T05:54:46.198Z,13.22
2018-05-15T05:55:46.129Z,13.34
2018-05-15T05:56:46.165Z,13.29
2018-05-15T05:57:46.121Z,13.34
2018-05-15T05:58:46.190Z,13.34
2018-05-15T05:59:46.268Z,13.36
2018-05-15T06:00:46.135Z,13.41
2018-05-15T06:01:46.200Z,13.43
2018-05-15T06:02:46.137Z,13.45
2018-05-15T06:03:46.153Z,13.52
2018-05-15T06:04:46.242Z,13.56
2018-05-15T06:05:46.185Z,13.59
2018-05-15T06:06:46.167Z,13.47
2018-05-15T06:07:46.138Z,13.54
2018-05-15T06:08:46.138Z,13.53
2018-05-15T06:09:46.170Z,13.6
2018-05-15T06:10:46.249Z,13.59
2018-05-15T06:11:46.155Z,13.53
2018-05-15T06:12:46.116Z,13.57
2018-05-15T06:13:46.126Z,13.61
2018-05-15T06:14:46.201Z,13.17
2018-05-15T06:15:46.126Z,13.17
2018-05-15T06:16:46.258Z,13.05
2018-05-15T06:17:46.142Z,13.07
2018-05-15T06:18:46.270Z,13.26
2018-05-15T06:19:46.201Z,13.37
2018-05-15T06:20:46.858Z,13.39
2018-05-15T06:21:46.243Z,13.4
2018-05-15T06:22:46.129Z,13.44
2018-05-15T06:23:46.144Z,13.26
2018-05-15T06:24:46.201Z,13.25
2018-05-15T06:25:46.161Z,13.1
2018-05-15T06:26:47.161Z,12.99
2018-05-15T06:27:46.317Z,12.82
2018-05-15T06:28:46.141Z,12.77
2018-05-15T06:29:46.129Z,12.74
2018-05-15T06:30:46.160Z,12.86
2018-05-15T06:31:46.187Z,12.84
2018-05-15T06:32:46.222Z,12.96
2018-05-15T06:33:46.216Z,12.98
2018-05-15T06:34:46.267Z,12.62
2018-05-15T06:35:46.222Z,12.8
2018-05-15T06:36:46.267Z,12.7
2018-05-15T06:37:46.247Z,12.78
2018-05-15T06:38:46.199Z,12.73
2018-05-15T06:39:46.250Z,12.66
2018-05-15T06:40:46.236Z,12.51
2018-05-15T06:41:46.199Z,12.37
2018-05-15T06:42:46.229Z,12.48
2018-05-15T06:43:46.223Z,12.12
2018-05-15T06:44:46.843Z,12.24
2018-05-15T06:45:46.233Z,12.46
2018-05-15T06:46:46.222Z,12.36
2018-05-15T06:47:49.127Z,12.34
2018-05-15T06:48:46.421Z,12.41
2018-05-15T06:49:46.241Z,12.51
2018-05-15T06:50:46.259Z,12.53
2018-05-15T06:51:46.294Z,12.61
2018-05-15T06:52:46.289Z,12.65
2018-05-15T06:53:46.334Z,12.72
2018-05-15T06:54:46.311Z,12.33
2018-05-15T06:55:46.312Z,12.5
2018-05-15T06:56:46.337Z,12.67
2018-05-15T06:57:46.320Z,12.61
2018-05-15T06:58:46.285Z,12.63
2018-05-15T06:59:46.378Z,12.78
2018-05-15T07:00:46.446Z,12.83
2018-05-15T07:01:46.733Z,12.86
2018-05-15T07:02:46.392Z,12.82
2018-05-15T07:03:46.295Z,12.67
2018-05-15T07:04:46.439Z,12.68
2018-05-15T07:05:46.325Z,12.57
2018-05-15T07:06:46.310Z,12.58
2018-05-15T07:07:46.928Z,12.62
2018-05-15T07:08:46.329Z,12.52
2018-05-15T07:09:46.363Z,12.4
2018-05-15T07:10:46.335Z,12.46
2018-05-15T07:11:46.354Z,12.31
2018-05-15T07:12:46.351Z,12.34
2018-05-15T07:13:46.400Z,12.28
2018-05-15T07:14:46.367Z,12.55
2018-05-15T07:15:46.660Z,12.53
2018-05-15T07:16:46.389Z,12.34
2018-05-15T07:17:46.628Z,12.48
2018-05-15T07:18:46.328Z,12.62
2018-05-15T07:19:46.781Z,12.65
2018-05-15T07:20:46.347Z,12.68
2018-05-15T07:21:46.353Z,12.73
2018-05-15T07:22:46.360Z,12.66
2018-05-15T07:23:46.342Z,12.86
2018-05-15T07:24:46.316Z,12.72
2018-05-15T07:25:46.375Z,12.7
2018-05-15T07:26:46.429Z,12.57
2018-05-15T07:27:46.356Z,12.75
2018-05-15T07:28:46.312Z,12.66
2018-05-15T07:29:46.314Z,12.71
2018-05-15T07:30:46.324Z,12.77
2018-05-15T07:31:46.317Z,12.77
2018-05-15T07:32:46.289Z,12.83
2018-05-15T07:33:46.295Z,12.94
2018-05-15T07:34:46.336Z,12.9
2018-05-15T07:35:46.383Z,12.66
2018-05-15T07:36:46.316Z,12.59
2018-05-15T07:37:46.388Z,12.61
2018-05-15T07:38:46.315Z,12.76
2018-05-15T07:39:46.380Z,12.46
2018-05-15T07:40:46.161Z,12.47
2018-05-15T07:41:46.356Z,12.53
2018-05-15T07:42:46.326Z,12.76
2018-05-15T07:43:46.160Z,12.84
2018-05-15T07:44:46.178Z,12.86
2018-05-15T07:45:46.360Z,12.94
2018-05-15T07:46:46.394Z,12.85
2018-05-15T07:47:46.148Z,12.97
2018-05-15T07:48:46.216Z,12.73
2018-05-15T07:49:46.211Z,12.94
2018-05-15T07:50:46.170Z,13.02
2018-05-15T07:51:46.194Z,13.06
2018-05-15T07:52:46.210Z,12.9
2018-05-15T07:53:46.960Z,13.02
2018-05-15T07:54:46.165Z,13.03
2018-05-15T07:55:46.161Z,12.99
2018-05-15T07:56:46.225Z,13
2018-05-15T07:57:46.176Z,13.04
2018-05-15T07:58:46.202Z,12.92
2018-05-15T07:59:46.214Z,12.78
2018-05-15T08:00:46.174Z,12.94
2018-05-15T08:01:46.174Z,12.84
2018-05-15T08:02:46.227Z,12.72
2018-05-15T08:03:46.170Z,12.63
2018-05-15T08:04:46.255Z,12.87
2018-05-15T08:05:46.185Z,12.82
2018-05-15T08:06:46.253Z,12.91
2018-05-15T08:07:46.624Z,13.06
2018-05-15T08:08:46.244Z,13.22
2018-05-15T08:09:46.240Z,13.21
2018-05-15T08:10:46.216Z,13.11
2018-05-15T08:11:46.507Z,13.3
2018-05-15T08:12:46.233Z,13.34
2018-05-15T08:13:46.255Z,12.91
2018-05-15T08:14:46.172Z,12.77
2018-05-15T08:15:46.248Z,12.76
2018-05-15T08:16:46.184Z,12.77
2018-05-15T08:17:46.190Z,12.78
2018-05-15T08:18:46.204Z,12.78
2018-05-15T08:19:46.227Z,12.73
2018-05-15T08:20:46.257Z,12.88
2018-05-15T08:21:46.277Z,13.09
2018-05-15T08:22:46.185Z,13.17
2018-05-15T08:23:46.205Z,13.01
2018-05-15T08:24:46.169Z,12.92
2018-05-15T08:25:46.193Z,13.07
2018-05-15T08:26:47.048Z,12.97
2018-05-15T08:27:46.249Z,12.79
2018-05-15T08:28:46.389Z,12.7
2018-05-15T08:29:46.190Z,12.97
2018-05-15T08:30:46.775Z,12.89
2018-05-15T08:31:46.196Z,12.58
2018-05-15T08:32:46.185Z,12.16
2018-05-15T08:33:46.218Z,12.47
2018-05-15T08:34:46.259Z,13
2018-05-15T08:35:46.198Z,12.89
2018-05-15T08:36:46.207Z,12.69
2018-05-15T08:37:46.247Z,12.71
2018-05-15T08:38:46.199Z,12.79
2018-05-15T08:39:46.198Z,12.75
2018-05-15T08:40:46.246Z,12.48
2018-05-15T08:41:46.226Z,12.57
2018-05-15T08:42:46.314Z,12.53
2018-05-15T08:43:46.312Z,12.39
2018-05-15T08:44:46.251Z,12.38
2018-05-15T08:45:46.304Z,12.56
2018-05-15T08:46:46.254Z,11.81
2018-05-15T08:47:47.136Z,11.76
2018-05-15T08:48:46.372Z,12.35
2018-05-15T08:49:46.296Z,12.58
2018-05-15T08:50:46.285Z,12.36
2018-05-15T08:51:46.313Z,12.53
2018-05-15T08:52:46.303Z,12.23
2018-05-15T08:53:46.288Z,12.07
2018-05-15T08:54:46.232Z,12.42
2018-05-15T08:55:46.261Z,12.35
2018-05-15T08:56:46.259Z,12.15
2018-05-15T08:57:46.288Z,11.88
2018-05-15T08:58:46.357Z,11.94
2018-05-15T08:59:46.253Z,12.07
2018-05-15T09:00:46.474Z,12.15
2018-05-15T09:01:46.277Z,11.76
2018-05-15T09:02:46.276Z,11.86
2018-05-15T09:03:46.294Z,11.89
2018-05-15T09:04:46.271Z,11.68
2018-05-15T09:05:46.266Z,11.82
2018-05-15T09:06:46.248Z,12.02
2018-05-15T09:07:46.261Z,12
2018-05-15T09:08:46.286Z,11.67
2018-05-15T09:09:46.309Z,11.92
2018-05-15T09:10:46.312Z,11.82
2018-05-15T09:11:46.262Z,11.96
2018-05-15T09:12:46.292Z,11.83
2018-05-15T09:13:46.234Z,12.12
2018-05-15T09:14:46.304Z,11.52
2018-05-15T09:15:46.330Z,11.72
2018-05-15T09:16:46.336Z,11.44
2018-05-15T09:17:46.300Z,11.56
2018-05-15T09:18:46.399Z,11.71
2018-05-15T09:19:46.705Z,11.55
2018-05-15T09:20:46.250Z,11.95
2018-05-15T09:21:46.264Z,11.76
2018-05-15T09:22:46.297Z,11.89
2018-05-15T09:23:46.292Z,12.03
2018-05-15T09:24:46.754Z,11.58
2018-05-15T09:25:46.352Z,11.86
2018-05-15T09:26:46.295Z,11.76
2018-05-15T09:27:46.289Z,11.46
2018-05-15T09:28:46.298Z,11.72
2018-05-15T09:29:46.305Z,11.35
2018-05-15T09:30:46.388Z,11.36
2018-05-15T09:31:46.256Z,11.15
2018-05-15T09:32:46.354Z,11.7
2018-05-15T09:33:46.346Z,11.84
2018-05-15T09:34:46.255Z,12.06
2018-05-15T09:35:46.278Z,12.11
2018-05-15T09:36:46.295Z,11.74
2018-05-15T09:37:46.291Z,11.74
2018-05-15T09:38:46.484Z,11.51
2018-05-15T09:39:46.295Z,11.48
2018-05-15T09:40:46.293Z,11.88
2018-05-15T09:41:46.296Z,11.84
2018-05-15T09:42:46.301Z,11.73
2018-05-15T09:43:46.270Z,11.44
2018-05-15T09:44:46.511Z,11.34
2018-05-15T09:45:46.324Z,11.7
2018-05-15T09:46:46.260Z,12.16
2018-05-15T09:47:46.433Z,11.71
2018-05-15T09:48:46.291Z,11.96
2018-05-15T09:49:46.377Z,11.61
2018-05-15T09:50:46.320Z,11.85
2018-05-15T09:51:46.296Z,11.86
2018-05-15T09:52:46.335Z,11.93
2018-05-15T09:53:46.282Z,11.8
2018-05-15T09:54:46.355Z,11.65
2018-05-15T09:55:46.330Z,11.72
2018-05-15T09:56:46.262Z,12.04
2018-05-15T09:57:46.349Z,11.38
2018-05-15T09:58:46.329Z,11.55
2018-05-15T09:59:46.303Z,11.09
2018-05-15T10:00:46.270Z,11.5
2018-05-15T10:01:46.285Z,11.51
2018-05-15T10:02:46.351Z,11.55
2018-05-15T10:03:46.279Z,11.41
2018-05-15T10:04:46.279Z,11.65
2018-05-15T10:05:46.309Z,11.82
2018-05-15T10:06:46.271Z,11.72
2018-05-15T10:07:46.609Z,11.75
2018-05-15T10:08:46.638Z,12.04
2018-05-15T10:09:46.256Z,11.95
2018-05-15T10:10:46.301Z,11.94
2018-05-15T10:11:46.302Z,11.99
2018-05-15T10:12:46.255Z,12.06
2018-05-15T10:13:46.305Z,11.74
2018-05-15T10:14:46.269Z,12.04
2018-05-15T10:15:46.323Z,11.96
2018-05-15T10:16:46.301Z,11.55
2018-05-15T10:17:46.252Z,12.02
2018-05-15T10:18:46.288Z,11.44
2018-05-15T10:19:46.267Z,11.99
2018-05-15T10:20:46.290Z,11.95
2018-05-15T10:21:46.292Z,12
2018-05-15T10:22:46.311Z,12.29
2018-05-15T10:23:46.305Z,11.64
2018-05-15T10:24:46.325Z,11.53
2018-05-15T10:25:46.370Z,11.44
2018-05-15T10:26:46.342Z,11.58
2018-05-15T10:27:46.298Z,12.08
2018-05-15T10:28:46.336Z,11.16
2018-05-15T10:29:46.457Z,11.55
2018-05-15T10:30:46.263Z,11.6
2018-05-15T10:31:46.327Z,11.75
2018-05-15T10:32:46.349Z,11.65
2018-05-15T10:33:46.289Z,11.61
2018-05-15T10:34:46.306Z,11.13
2018-05-15T10:35:46.285Z,11.72
2018-05-15T10:36:46.404Z,10.69
2018-05-15T10:37:46.315Z,10.31
2018-05-15T10:38:46.275Z,11.09
2018-05-15T10:39:46.343Z,11.72
2018-05-15T10:40:46.516Z,11.61
2018-05-15T10:41:46.497Z,11.88
2018-05-15T10:42:46.340Z,11.72
2018-05-15T10:43:46.283Z,10.84
2018-05-15T10:44:46.339Z,11.44
2018-05-15T10:45:46.320Z,9.85
2018-05-15T10:46:46.305Z,10.17
2018-05-15T10:47:46.325Z,10.62
2018-05-15T10:48:46.284Z,10.28
2018-05-15T10:49:46.311Z,10.65
2018-05-15T10:50:46.606Z,10.49
2018-05-15T10:51:46.276Z,10.43
2018-05-15T10:52:46.285Z,10.38
2018-05-15T10:53:46.368Z,9.95
2018-05-15T10:54:46.278Z,10.01
2018-05-15T10:55:46.307Z,10.38
2018-05-15T10:56:46.294Z,9.8
2018-05-15T10:57:46.299Z,10.07
2018-05-15T10:58:46.272Z,9.71
2018-05-15T10:59:46.318Z,9.95
2018-05-15T11:00:46.319Z,10.53
2018-05-15T11:01:46.295Z,10.06
2018-05-15T11:02:46.473Z,10.03
2018-05-15T11:03:46.316Z,10.48
2018-05-15T11:04:46.479Z,10.63
2018-05-15T11:05:46.363Z,11.02
2018-05-15T11:06:46.363Z,10.22
2018-05-15T11:07:46.343Z,10.64
2018-05-15T11:08:46.406Z,10.12
2018-05-15T11:09:46.366Z,9.79
2018-05-15T11:10:46.330Z,9.92
2018-05-15T11:11:46.312Z,10.33
2018-05-15T11:12:46.719Z,9.52
2018-05-15T11:13:46.281Z,9.73
2018-05-15T11:14:46.337Z,10.02
2018-05-15T11:15:46.325Z,9.44
2018-05-15T11:16:46.410Z,8.83
2018-05-15T11:17:46.375Z,9.17
2018-05-15T11:18:46.995Z,8.83
2018-05-15T11:19:46.329Z,8.57
2018-05-15T11:20:46.300Z,8.41
2018-05-15T11:21:46.299Z,9.1
2018-05-15T11:22:46.427Z,8.59
2018-05-15T11:23:46.351Z,7.92
2018-05-15T11:24:46.505Z,8.41
2018-05-15T11:25:46.312Z,8.5
2018-05-15T11:26:46.304Z,8.39
2018-05-15T11:27:46.347Z,8.39
2018-05-15T11:28:46.376Z,8.8
2018-05-15T11:29:46.352Z,8.96
2018-05-15T11:30:46.358Z,9.08
2018-05-15T11:31:46.475Z,9.3
2018-05-15T11:32:46.403Z,8.73
2018-05-15T11:33:46.381Z,8.81
2018-05-15T11:34:46.471Z,8.51
2018-05-15T11:35:47.387Z,8.95
2018-05-15T11:36:46.346Z,8.62
2018-05-15T11:37:46.506Z,8.65
2018-05-15T11:38:46.344Z,8.54
2018-05-15T11:39:46.318Z,8.61
2018-05-15T11:40:47.049Z,8.55
2018-05-15T11:41:46.769Z,9.15
2018-05-15T11:42:46.443Z,8.67
2018-05-15T11:43:46.308Z,8.78
2018-05-15T11:44:46.398Z,7.97
2018-05-15T11:45:46.370Z,8.57
2018-05-15T11:46:46.297Z,8.51
2018-05-15T11:47:49.286Z,8.33
2018-05-15T11:48:52.380Z,7.76
2018-05-15T11:49:51.943Z,7.78
2018-05-15T11:50:52.711Z,8.07
2018-05-15T11:51:52.585Z,8.18
2018-05-15T11:52:50.925Z,8.52
2018-05-15T11:53:46.626Z,7.78
2018-05-15T11:54:46.417Z,8.56
2018-05-15T11:55:46.510Z,7.62
2018-05-15T11:56:46.478Z,7.43
2018-05-15T11:57:46.547Z,7.62
2018-05-15T11:58:46.352Z,7.29
2018-05-15T11:59:46.868Z,7.34
2018-05-15T12:00:46.437Z,8.13
2018-05-15T12:01:46.338Z,8.03
2018-05-15T12:02:46.815Z,7.82
2018-05-15T12:03:46.701Z,7.67
2018-05-15T12:04:46.298Z,7.64
2018-05-15T12:05:46.357Z,7.56
2018-05-15T12:06:46.367Z,7.35
2018-05-15T12:07:46.348Z,7.61
2018-05-15T12:08:46.358Z,7.56
2018-05-15T12:09:46.329Z,7.27
2018-05-15T12:10:46.338Z,6.72
2018-05-15T12:11:46.383Z,7.2
2018-05-15T12:12:46.536Z,7.61
2018-05-15T12:13:46.326Z,7.18
2018-05-15T12:14:46.314Z,7.03
2018-05-15T12:15:46.480Z,7.33
2018-05-15T12:16:46.334Z,7.77
2018-05-15T12:17:46.319Z,7.22
2018-05-15T12:18:46.327Z,7.37
2018-05-15T12:19:52.201Z,7.19
2018-05-15T12:20:46.346Z,6.8
2018-05-15T12:21:46.329Z,7.04
2018-05-15T12:22:46.373Z,6.97
2018-05-15T12:23:46.365Z,7.27
2018-05-15T12:24:46.425Z,7.68
2018-05-15T12:25:46.392Z,7.73
2018-05-15T12:26:46.454Z,6.31
2018-05-15T12:27:46.348Z,7.3
2018-05-15T12:28:46.422Z,6.64
2018-05-15T12:29:46.568Z,6.44
2018-05-15T12:30:46.432Z,6.4
2018-05-15T12:31:46.394Z,7.02
2018-05-15T12:32:46.420Z,6.93
2018-05-15T12:33:46.375Z,7.4
2018-05-15T12:34:46.336Z,7.59
2018-05-15T12:35:46.753Z,7.5
2018-05-15T12:36:46.385Z,7.4
2018-05-15T12:37:46.372Z,7.53
2018-05-15T12:38:46.380Z,7.51
2018-05-15T12:39:46.367Z,7.68
2018-05-15T12:40:46.411Z,7.85
2018-05-15T12:41:47.256Z,7.36
2018-05-15T12:42:46.362Z,7.02
2018-05-15T12:43:46.348Z,7.34
2018-05-15T12:44:46.412Z,7.55
2018-05-15T12:45:46.478Z,7.47
2018-05-15T12:46:46.837Z,7.51
2018-05-15T12:47:46.646Z,7.47
2018-05-15T12:48:47.114Z,7.87
2018-05-15T12:49:46.384Z,7.5
2018-05-15T12:50:46.362Z,7.37
2018-05-15T12:51:46.886Z,7.3
2018-05-15T12:52:46.363Z,7.3
2018-05-15T12:53:46.399Z,6.87
2018-05-15T12:54:46.414Z,7.18
2018-05-15T12:55:46.336Z,7.52
2018-05-15T12:56:46.432Z,7.29
2018-05-15T12:57:46.429Z,7.11
2018-05-15T12:58:46.476Z,7.18